Terminal Aerodrome Forecast
Issued by NWS Cleveland, OH

Home | Current Version | Previous Version | Text Only | Print | Product List | Glossary On
Versions: 1 2 3 4 5 6 7 8 9 10 11 12 13
000
FTUS41 KCLE 041129
TAFYNG
TAF
KYNG 041129Z 0412/0512 35004KT P6SM SCT070
     FM041400 35006KT P6SM SCT020
     FM041800 33006KT P6SM SCT040
     FM050100 VRB02KT P6SM FEW250
      TEMPO 0509/0512 4SM BR=

USA.gov is the U.S. government's official web portal to all federal, state and local government web resources and services.